Main page
METAR-TAF:

METAR-TAF

Airports :

Ilo Airport

Ilo, Peru

latitude: 17-41-45S, longitude: 071-20-35W, elevation: 22 m

Current weather observation

The report was made 18 minutes ago, at 16:00 UTC
Wind 6 kt from the North
Temperature 18°C
Humidity 77%
Pressure 1018 hPa
Visibility: 8000 m
Overcast at a height of 3000 ft

METAR: SPLO 221600Z 35006KT 8000 OVC030 18/14 Q1018 RMK PPOOO

Time: 11:18 (16:18 UTC)

Forecast

The report was made 2 hours and 26 minutes ago, at 13:52 UTC
Forecast valid from 22 at 12 UTC to 23 at 12 UTC
Wind 4 kt from the South/Southwest
Visibility 10 km or more
Broken clouds at a height of 3000 ft
Becoming
from 23 at 00 UTC to 23 at 02 UTC
Overcast at a height of 1400 ft

TAF: SPLO 221352Z 2212/2312 20004KT 9999 BKN030 TX21/2219Z TN14/2311Z BECMG 2300/2302 OVC014

Weather observations and forecasts of more than 4000 airports (METAR and TAF reports).

The available stations are represented by yellow and red dots on the map.

Hover mouse over dot to see the name of the station.

Then click to see weather observations and forecasts.

To change the map : click on the green buttons with a black cross to zoom in, on the green button with a dash to zoom out, or on the green arrows for adjacent maps.


METAR-TAF: